Time;durP1;ratioP1;P1;durP2;ratioP2;P2;SDS_P1;SDS_P2;PMS_P1;PMS_P2;Temp;Humidity;BMP_temperature;BMP_pressure;BME280_temperature;BME280_humidity;BME280_pressure;Samples;Min_cycle;Max_cycle;Signal;HPM_P1;HPM_P2
2021/03/23 00:00:43;;;;;;;15.25;8.43;;;;;;;-0.22;98.97;94475.63;5065570;28;20414;-72
2021/03/23 00:03:35;;;;;;;13.57;7.40;;;;;;;-0.28;98.59;94481.41;5065350;28;20402;-72
2021/03/23 00:06:02;;;;;;;14.23;7.22;;;;;;;-0.27;98.51;94472.78;5064644;28;20040;-72
2021/03/23 00:08:33;;;;;;;12.35;6.93;;;;;;;-0.21;98.41;94472.09;5063383;28;20604;-72
2021/03/23 00:11:06;;;;;;;13.10;7.88;;;;;;;-0.21;97.89;94472.09;5067382;28;20044;-72
2021/03/23 00:13:33;;;;;;;11.00;6.32;;;;;;;-0.19;97.71;94479.59;5065668;28;20040;-71
2021/03/23 00:16:00;;;;;;;19.48;8.73;;;;;;;-0.16;97.28;94488.69;5065608;28;20415;-71
2021/03/23 00:18:26;;;;;;;14.80;8.30;;;;;;;-0.18;97.29;94482.94;5066094;28;20144;-72
2021/03/23 00:20:53;;;;;;;11.07;7.18;;;;;;;-0.42;99.03;94484.72;5065626;28;20123;-72
2021/03/23 00:23:20;;;;;;;17.30;9.38;;;;;;;-0.71;100.00;94490.53;5067285;28;20044;-71
2021/03/23 00:25:46;;;;;;;28.25;14.95;;;;;;;-1.00;100.00;94497.88;5065776;28;20091;-71
2021/03/23 00:28:13;;;;;;;36.22;19.92;;;;;;;-1.04;100.00;94501.72;5064995;28;20040;-71
2021/03/23 00:30:39;;;;;;;35.88;21.05;;;;;;;-0.94;100.00;94503.28;5066118;28;20048;-72
2021/03/23 00:33:05;;;;;;;48.85;25.02;;;;;;;-0.73;100.00;94506.03;5067368;28;20044;-71
2021/03/23 00:35:32;;;;;;;84.05;35.72;;;;;;;-0.83;100.00;94488.38;5065367;28;20044;-71
2021/03/23 00:38:01;;;;;;;113.75;39.25;;;;;;;-0.76;100.00;94508.91;5063144;28;20040;-71
2021/03/23 00:40:31;;;;;;;78.10;32.67;;;;;;;-0.70;100.00;94513.38;5065009;28;20425;-71
2021/03/23 00:42:59;;;;;;;56.70;28.02;;;;;;;-0.63;100.00;94504.06;5065699;28;20421;-71
2021/03/23 00:45:26;;;;;;;57.55;29.38;;;;;;;-0.96;100.00;94499.13;5066966;28;20044;-71
2021/03/23 00:47:52;;;;;;;61.17;27.77;;;;;;;-0.91;100.00;94515.72;5065650;28;20448;-71
2021/03/23 00:50:19;;;;;;;72.63;30.77;;;;;;;-0.89;100.00;94514.59;5065192;28;20119;-71
2021/03/23 00:52:46;;;;;;;81.60;32.92;;;;;;;-0.88;100.00;94523.03;5063811;28;20068;-71
2021/03/23 00:55:12;;;;;;;59.20;29.00;;;;;;;-0.94;100.00;94513.50;5065497;28;20041;-71
2021/03/23 00:57:39;;;;;;;66.13;29.98;;;;;;;-0.87;100.00;94522.09;5065101;28;20050;-72
2021/03/23 01:00:10;;;;;;;52.83;25.67;;;;;;;-0.74;100.00;94512.09;5066807;28;20136;-71
2021/03/23 01:02:36;;;;;;;51.40;26.45;;;;;;;-0.63;100.00;94504.06;5064203;28;20055;-71
2021/03/23 01:05:04;;;;;;;80.05;33.08;;;;;;;-0.42;100.00;94520.56;5064650;28;20462;-71
2021/03/23 01:07:31;;;;;;;206.20;65.03;;;;;;;-0.40;100.00;94519.44;5065377;28;20791;-71
2021/03/23 01:09:57;;;;;;;78.68;32.47;;;;;;;-0.36;100.00;94525.00;5065297;28;20083;-71
2021/03/23 01:12:23;;;;;;;49.28;23.85;;;;;;;-0.34;100.00;94517.94;5065435;28;20040;-71
2021/03/23 01:14:50;;;;;;;42.30;22.45;;;;;;;-0.28;100.00;94522.38;5066652;28;20047;-71
2021/03/23 01:17:16;;;;;;;44.00;22.73;;;;;;;-0.38;99.63;94511.56;5065075;28;20047;-71
2021/03/23 01:19:42;;;;;;;45.60;24.25;;;;;;;-0.37;99.49;94518.28;5064710;28;20074;-71
2021/03/23 01:22:09;;;;;;;38.85;22.70;;;;;;;-0.28;99.34;94527.50;5063282;28;20040;-72
2021/03/23 01:24:35;;;;;;;37.47;21.55;;;;;;;-0.21;99.05;94523.28;5067190;28;20040;-72
2021/03/23 01:27:03;;;;;;;37.40;20.35;;;;;;;-0.17;98.40;94517.81;5065099;28;20048;-72
2021/03/23 01:29:30;;;;;;;39.78;21.30;;;;;;;-0.14;98.51;94517.50;5064731;28;20036;-72
2021/03/23 01:31:58;;;;;;;35.47;19.85;;;;;;;-0.09;97.94;94510.06;5065197;28;20136;-72
2021/03/23 01:34:43;;;;;;;38.15;19.98;;;;;;;-0.13;97.47;94503.69;5066084;28;20052;-71
2021/03/23 01:37:10;;;;;;;38.10;20.33;;;;;;;-0.07;97.25;94513.28;5064797;28;20044;-72
2021/03/23 01:39:37;;;;;;;42.58;21.75;;;;;;;-0.06;97.18;94519.97;5064830;28;20040;-72
2021/03/23 01:42:04;;;;;;;37.40;21.10;;;;;;;-0.06;96.95;94515.63;5064364;28;20059;-72
2021/03/23 01:44:31;;;;;;;34.80;18.80;;;;;;;-0.04;96.56;94518.03;5064775;28;20506;-72
2021/03/23 01:46:57;;;;;;;38.70;20.10;;;;;;;-0.01;96.22;94517.69;5064545;28;20041;-71
2021/03/23 01:49:26;;;;;;;35.03;19.65;;;;;;;-0.24;96.81;94518.50;5066282;28;20497;-71
2021/03/23 01:51:56;;;;;;;37.47;20.70;;;;;;;-0.27;97.17;94508.63;5064830;28;20391;-71
2021/03/23 01:54:25;;;;;;;39.05;21.45;;;;;;;-0.22;97.14;94526.81;5063274;28;20052;-71
2021/03/23 01:56:54;;;;;;;53.28;31.85;;;;;;;-0.28;97.71;94519.81;5068276;28;20557;-72
2021/03/23 01:59:22;;;;;;;63.25;34.30;;;;;;;-0.42;98.38;94520.56;5065321;28;20543;-72
2021/03/23 02:01:50;;;;;;;120.72;42.90;;;;;;;-0.48;98.86;94521.25;5065061;28;20044;-72
2021/03/23 02:04:17;;;;;;;67.00;31.23;;;;;;;-0.99;100.00;94499.47;5066073;28;20505;-72
2021/03/23 02:06:48;;;;;;;56.13;26.30;;;;;;;-0.92;100.00;94509.00;5070067;28;20452;-72
2021/03/23 02:09:30;;;;;;;76.90;36.20;;;;;;;-0.77;100.00;94523.47;5069207;28;20040;-72
2021/03/23 02:12:03;;;;;;;64.28;29.67;;;;;;;-1.05;100.00;94525.69;5068316;28;20040;-72
2021/03/23 02:14:33;;;;;;;65.00;33.60;;;;;;;-1.26;100.00;94515.22;5067938;28;20052;-72
2021/03/23 02:17:20;;;;;;;61.85;29.92;;;;;;;-1.01;100.00;94521.84;5068936;28;20132;-72
2021/03/23 02:19:49;;;;;;;56.45;28.00;;;;;;;-0.86;100.00;94516.03;5069045;28;20064;-72
2021/03/23 02:22:25;;;;;;;51.50;25.58;;;;;;;-0.88;100.00;94526.41;5070613;28;20044;-72
2021/03/23 02:24:52;;;;;;;64.20;31.42;;;;;;;-1.35;100.00;94510.16;5068583;28;20131;-72
2021/03/23 02:27:21;;;;;;;63.33;30.73;;;;;;;-1.21;100.00;94515.53;5072237;28;20036;-71
2021/03/23 02:29:49;;;;;;;62.45;30.85;;;;;;;-1.10;100.00;94527.94;5068741;28;20041;-71
2021/03/23 02:32:15;;;;;;;58.13;29.95;;;;;;;-0.93;100.00;94530.44;5067836;28;20052;-71
2021/03/23 02:34:43;;;;;;;50.63;28.65;;;;;;;-0.80;100.00;94528.13;5068831;28;20490;-71
2021/03/23 02:37:09;;;;;;;54.53;28.15;;;;;;;-0.96;100.00;94524.69;5067038;28;20044;-71
2021/03/23 02:39:36;;;;;;;55.97;28.30;;;;;;;-0.91;100.00;94526.75;5070507;28;20090;-71
2021/03/23 02:42:04;;;;;;;54.50;27.70;;;;;;;-0.93;100.00;94535.56;5069488;28;20044;-71
2021/03/23 02:44:46;;;;;;;57.90;29.77;;;;;;;-1.07;100.00;94532.72;5068189;28;20052;-72
2021/03/23 02:47:15;;;;;;;72.35;34.35;;;;;;;-1.01;100.00;94531.25;5066994;28;20049;-72
2021/03/23 02:49:41;;;;;;;70.15;32.63;;;;;;;-1.20;100.00;94537.56;5067673;28;20032;-72
2021/03/23 02:52:09;;;;;;;73.80;33.83;;;;;;;-1.27;100.00;94517.00;5069853;28;20478;-72
2021/03/23 02:54:36;;;;;;;71.00;33.28;;;;;;;-1.05;100.00;94530.78;5066032;28;20052;-72
2021/03/23 02:57:03;;;;;;;72.75;37.15;;;;;;;-1.15;100.00;94535.31;5067744;28;20045;-72
2021/03/23 02:59:29;;;;;;;72.60;34.30;;;;;;;-1.31;100.00;94537.94;5067995;28;20102;-72
2021/03/23 03:01:55;;;;;;;89.22;35.10;;;;;;;-1.50;100.00;94537.34;5068141;28;20036;-72
2021/03/23 03:04:22;;;;;;;68.30;30.90;;;;;;;-1.30;100.00;94536.97;5067980;28;20117;-72
2021/03/23 03:06:48;;;;;;;79.63;33.63;;;;;;;-1.56;100.00;94517.56;5068051;28;20056;-72
2021/03/23 03:09:15;;;;;;;83.82;36.13;;;;;;;-1.66;100.00;94542.47;5068483;28;20041;-72
2021/03/23 03:11:41;;;;;;;86.78;35.10;;;;;;;-1.79;100.00;94541.22;5067702;28;20040;-72
2021/03/23 03:14:07;;;;;;;90.30;38.47;;;;;;;-1.66;100.00;94547.59;5068393;28;20072;-72
2021/03/23 03:16:33;;;;;;;77.60;35.28;;;;;;;-1.50;100.00;94547.56;5068526;28;20044;-71
2021/03/23 03:19:00;;;;;;;91.45;32.58;;;;;;;-1.62;100.00;94533.53;5068724;28;20533;-71
2021/03/23 03:21:26;;;;;;;75.13;33.53;;;;;;;-1.41;100.00;94544.00;5074912;28;20037;-72
2021/03/23 03:23:54;;;;;;;88.43;36.35;;;;;;;-1.39;100.00;94549.78;5068635;28;20036;-72
2021/03/23 03:26:20;;;;;;;100.68;36.95;;;;;;;-1.77;100.00;94557.16;5067247;28;20048;-71
2021/03/23 03:28:50;;;;;;;126.30;36.83;;;;;;;-1.95;100.00;94554.00;5069871;28;20033;-71
2021/03/23 03:31:22;;;;;;;159.88;39.05;;;;;;;-1.98;100.00;94554.31;5067948;28;20059;-71
2021/03/23 03:33:52;;;;;;;131.98;40.92;;;;;;;-2.09;100.00;94557.19;5069874;28;20040;-71
2021/03/23 03:36:20;;;;;;;132.10;40.45;;;;;;;-2.33;100.00;94535.81;5066872;28;20500;-71
2021/03/23 03:38:47;;;;;;;121.40;40.35;;;;;;;-2.24;100.00;94560.38;5066769;28;20047;-71
2021/03/23 03:41:14;;;;;;;114.38;40.45;;;;;;;-2.20;100.00;94556.53;5068319;28;20675;-71
2021/03/23 03:43:41;;;;;;;118.93;43.65;;;;;;;-1.99;100.00;94578.25;5072512;28;20058;-71
2021/03/23 03:46:08;;;;;;;161.95;43.85;;;;;;;-2.12;100.00;94569.31;5067991;28;20119;-71
2021/03/23 03:48:34;;;;;;;133.50;44.67;;;;;;;-2.10;100.00;94570.91;5069505;28;20055;-71
2021/03/23 03:51:01;;;;;;;134.77;44.80;;;;;;;-2.15;100.00;94558.63;5069040;28;20531;-71
2021/03/23 03:53:27;;;;;;;114.18;44.85;;;;;;;-2.03;100.00;94567.56;5066716;28;20045;-71
2021/03/23 03:55:56;;;;;;;101.40;43.47;;;;;;;-1.76;100.00;94574.09;5067692;28;20123;-71
2021/03/23 03:58:23;;;;;;;154.15;66.53;;;;;;;-1.61;100.00;94576.00;5069393;28;20040;-71
2021/03/23 04:00:49;;;;;;;110.38;44.97;;;;;;;-1.52;100.00;94567.34;5065995;28;20072;-71
2021/03/23 04:03:24;;;;;;;89.00;39.83;;;;;;;-1.47;100.00;94577.88;5068252;28;20493;-71
2021/03/23 04:05:53;;;;;;;91.95;38.72;;;;;;;-1.39;100.00;94570.22;5067237;28;20056;-71
2021/03/23 04:08:24;;;;;;;88.40;37.90;;;;;;;-1.50;100.00;94573.09;5066835;28;20075;-72
2021/03/23 04:10:52;;;;;;;90.07;39.53;;;;;;;-1.62;100.00;94569.28;5068219;28;20429;-71
2021/03/23 04:13:19;;;;;;;94.50;39.17;;;;;;;-1.88;100.00;94562.59;5066430;28;20115;-71
2021/03/23 04:15:48;;;;;;;91.05;38.92;;;;;;;-1.61;100.00;94576.00;5066551;28;20044;-71
2021/03/23 04:18:18;;;;;;;93.10;39.58;;;;;;;-1.47;100.00;94567.66;5065255;28;20037;-71
2021/03/23 04:20:45;;;;;;;85.15;41.13;;;;;;;-1.15;100.00;94576.22;5066812;28;20506;-71
2021/03/23 04:23:20;;;;;;;83.32;37.15;;;;;;;-1.17;100.00;94586.59;5069520;28;20045;-71
2021/03/23 04:25:47;;;;;;;81.15;40.10;;;;;;;-1.32;100.00;94577.22;5066041;28;20040;-71
2021/03/23 04:28:13;;;;;;;89.15;43.38;;;;;;;-1.36;100.00;94590.31;5065882;28;20033;-71
2021/03/23 04:30:40;;;;;;;91.28;43.83;;;;;;;-1.27;100.00;94597.97;5066154;28;20041;-71
2021/03/23 04:33:06;;;;;;;87.13;40.88;;;;;;;-1.20;100.00;94591.25;5066505;28;20118;-71
2021/03/23 04:35:36;;;;;;;84.70;39.13;;;;;;;-1.43;100.00;94607.25;5069268;28;20047;-71
2021/03/23 04:38:03;;;;;;;111.43;42.80;;;;;;;-1.60;100.00;94603.94;5069613;28;20058;-71
2021/03/23 04:40:29;;;;;;;86.40;40.72;;;;;;;-1.44;100.00;94608.22;5066567;28;20572;-71
2021/03/23 04:42:55;;;;;;;90.80;40.80;;;;;;;-1.58;100.00;94606.31;5067557;28;20134;-71
2021/03/23 04:45:22;;;;;;;87.63;40.90;;;;;;;-1.34;100.00;94623.38;5073064;28;20052;-71
2021/03/23 04:47:48;;;;;;;87.22;41.78;;;;;;;-1.23;100.00;94619.69;5069355;28;20488;-71
2021/03/23 04:50:17;;;;;;;87.75;39.83;;;;;;;-1.43;100.00;94625.13;5069058;28;20119;-71
2021/03/23 04:52:44;;;;;;;94.95;41.50;;;;;;;-1.58;100.00;94626.75;5066073;28;20051;-71
2021/03/23 04:55:13;;;;;;;92.78;42.88;;;;;;;-1.65;100.00;94636.03;5066165;28;20037;-71
2021/03/23 04:57:40;;;;;;;94.05;43.95;;;;;;;-1.61;100.00;94627.06;5067606;28;20502;-71
2021/03/23 05:00:09;;;;;;;101.50;47.45;;;;;;;-1.50;100.00;94639.50;5067887;28;20118;-71
2021/03/23 05:02:35;;;;;;;108.35;48.08;;;;;;;-1.48;100.00;94636.78;5068849;28;20040;-71
2021/03/23 05:05:03;;;;;;;200.68;113.68;;;;;;;-1.71;100.00;94611.94;5068985;28;20067;-71
2021/03/23 05:07:29;;;;;;;123.25;55.80;;;;;;;-1.58;100.00;94636.97;5070461;28;20074;-71
2021/03/23 05:09:56;;;;;;;133.57;62.72;;;;;;;-1.43;100.00;94635.34;5068017;28;20569;-71
2021/03/23 05:12:22;;;;;;;121.63;59.83;;;;;;;-1.26;100.00;94635.31;5068356;28;20522;-70
2021/03/23 05:14:49;;;;;;;115.15;55.50;;;;;;;-1.19;100.00;94626.03;5070915;28;20067;-71
2021/03/23 05:17:16;;;;;;;91.55;44.60;;;;;;;-1.03;100.00;94620.09;5072999;28;20108;-70
2021/03/23 05:19:42;;;;;;;100.28;47.70;;;;;;;-0.78;100.00;94625.94;5071001;28;20040;-71
2021/03/23 05:22:09;;;;;;;195.60;78.53;;;;;;;-0.50;100.00;94630.63;5067719;28;20048;-71
2021/03/23 05:24:35;;;;;;;96.95;45.88;;;;;;;-0.30;100.00;94631.00;5068741;28;20045;-71
2021/03/23 05:27:03;;;;;;;77.90;37.67;;;;;;;-0.11;100.00;94629.78;5069668;28;20496;-71
2021/03/23 05:29:29;;;;;;;66.63;37.97;;;;;;;0.05;100.00;94634.78;5068062;28;20044;-71
2021/03/23 05:31:56;;;;;;;77.43;40.22;;;;;;;0.15;100.00;94637.13;5069731;28;20044;-70
2021/03/23 05:34:22;;;;;;;88.85;46.05;;;;;;;0.12;100.00;94620.31;5074537;28;20070;-70
2021/03/23 05:36:49;;;;;;;89.35;47.00;;;;;;;0.23;100.00;94631.16;5073081;28;20039;-70
2021/03/23 05:39:15;;;;;;;103.57;52.90;;;;;;;0.32;99.60;94635.22;5069374;28;20119;-70
2021/03/23 05:41:55;;;;;;;107.75;59.25;;;;;;;0.38;99.24;94639.69;5075922;28;20433;-71
2021/03/23 05:44:40;;;;;;;94.07;52.28;;;;;;;0.50;97.93;94643.41;5074897;28;20040;-71
2021/03/23 05:47:11;;;;;;;88.68;47.40;;;;;;;0.48;97.71;94645.34;5074773;28;20060;-71
2021/03/23 05:49:43;;;;;;;100.97;52.97;;;;;;;0.50;97.32;94647.75;5076985;28;20426;-71
2021/03/23 05:52:48;;;;;;;95.63;50.05;;;;;;;0.16;98.10;94652.34;5075409;28;20537;-71
2021/03/23 05:55:34;;;;;;;95.65;46.97;;;;;;;0.02;99.73;94654.81;5049434;28;20048;-72
2021/03/23 05:58:02;;;;;;;73.50;39.83;;;;;;;-0.06;99.68;94668.47;5073712;28;20520;-72
2021/03/23 06:00:35;;;;;;;63.75;38.47;;;;;;;-0.04;99.81;94661.41;5079014;28;20063;-72
2021/03/23 06:03:22;;;;;;;79.75;47.47;;;;;;;0.27;98.83;94679.31;5077423;28;20043;-72
2021/03/23 06:05:55;;;;;;;71.63;39.72;;;;;;;0.41;97.50;94675.19;5076931;28;20033;-72
2021/03/23 06:08:28;;;;;;;63.38;36.15;;;;;;;0.47;97.02;94681.41;5076504;28;20037;-72
2021/03/23 06:11:19;;;;;;;67.60;38.00;;;;;;;0.48;96.60;94670.97;5073519;28;20060;-72
2021/03/23 06:14:11;;;;;;;90.88;49.40;;;;;;;0.36;96.27;94662.09;5074026;28;20416;-72
2021/03/23 06:16:51;;;;;;;80.78;41.80;;;;;;;0.44;96.45;94679.97;5074755;28;20044;-72
2021/03/23 06:19:39;;;;;;;72.30;40.08;;;;;;;0.63;95.72;94677.91;5071843;28;20048;-72
2021/03/23 06:22:20;;;;;;;71.50;37.65;;;;;;;0.82;95.57;94692.81;5075381;28;20123;-72
2021/03/23 06:25:02;;;;;;;61.47;35.53;;;;;;;0.97;93.66;94692.03;5072254;28;20088;-72
2021/03/23 06:27:43;;;;;;;85.10;49.92;;;;;;;1.02;93.35;94692.31;5071221;28;20655;-72
2021/03/23 06:30:19;;;;;;;146.27;80.97;;;;;;;1.10;93.34;94699.97;5072743;28;20058;-72
2021/03/23 06:32:48;;;;;;;104.95;61.55;;;;;;;1.21;92.58;94691.81;5068186;28;20123;-73
2021/03/23 06:35:21;;;;;;;72.85;42.38;;;;;;;1.32;92.02;94704.19;5070848;28;20420;-69
2021/03/23 06:37:50;;;;;;;60.22;35.35;;;;;;;1.47;91.23;94705.97;5069679;28;20549;-72
2021/03/23 06:40:23;;;;;;;64.80;37.00;;;;;;;1.43;90.01;94679.88;5070906;28;20417;-72
2021/03/23 06:42:56;;;;;;;64.15;37.78;;;;;;;1.58;89.30;94708.09;5069338;28;20394;-72
2021/03/23 06:45:33;;;;;;;71.70;43.70;;;;;;;1.74;88.60;94703.75;5071911;28;20062;-72
2021/03/23 06:48:26;;;;;;;64.50;36.55;;;;;;;1.85;87.33;94713.56;5070935;28;20486;-71
2021/03/23 06:51:19;;;;;;;53.38;30.33;;;;;;;1.77;86.40;94711.09;5068554;28;20123;-71
2021/03/23 06:53:46;;;;;;;41.03;24.58;;;;;;;1.94;85.99;94717.63;5068402;28;20111;-72
2021/03/23 06:56:22;;;;;;;44.20;25.33;;;;;;;2.08;85.80;94708.28;5070094;28;20052;-72
2021/03/23 06:59:16;;;;;;;39.83;25.13;;;;;;;2.34;85.29;94718.06;5073335;28;20116;-72
2021/03/23 07:01:47;;;;;;;38.65;21.58;;;;;;;2.30;81.92;94724.53;5068591;28;20055;-72
2021/03/23 07:04:23;;;;;;;47.38;25.63;;;;;;;2.37;81.27;94717.69;5072185;28;20513;-72
2021/03/23 07:07:04;;;;;;;36.25;23.05;;;;;;;2.57;80.80;94725.59;5067591;28;20482;-72
2021/03/23 07:09:31;;;;;;;24.40;14.77;;;;;;;2.42;78.82;94730.78;5068264;28;20071;-72
2021/03/23 07:12:04;;;;;;;13.57;9.48;;;;;;;2.18;77.65;94733.69;5069108;28;20456;-72
2021/03/23 07:14:38;;;;;;;7.95;5.93;;;;;;;1.93;77.40;94731.44;5069631;28;20052;-72
2021/03/23 07:17:22;;;;;;;15.10;9.63;;;;;;;1.74;78.18;94737.13;5067893;28;20047;-72
2021/03/23 07:20:08;;;;;;;19.73;8.70;;;;;;;1.66;79.42;94731.13;5070039;28;20490;-72
2021/03/23 07:22:41;;;;;;;9.45;6.97;;;;;;;1.76;77.84;94740.31;5069316;28;20060;-72
2021/03/23 07:25:41;;;;;;;15.18;8.85;;;;;;;1.85;78.72;94745.16;5071899;28;20476;-72
2021/03/23 07:28:36;;;;;;;9.32;7.13;;;;;;;1.95;79.17;94742.34;5067110;28;20040;-72
2021/03/23 07:31:16;;;;;;;10.25;7.88;;;;;;;1.90;77.89;94748.00;5064874;28;20044;-72
2021/03/23 07:33:45;;;;;;;12.90;7.55;;;;;;;2.00;78.99;94745.16;5065838;28;20040;-72
2021/03/23 07:36:19;;;;;;;32.97;18.60;;;;;;;2.21;78.15;94728.19;5068865;28;20106;-72
2021/03/23 07:38:57;;;;;;;10.95;6.05;;;;;;;2.47;78.07;94754.19;5068407;28;20036;-72
2021/03/23 07:41:35;;;;;;;8.00;4.60;;;;;;;2.14;76.14;94750.44;5071198;28;20036;-72
2021/03/23 07:44:33;;;;;;;11.52;6.85;;;;;;;2.41;77.52;94749.78;5070670;28;20036;-72
2021/03/23 07:47:05;;;;;;;5.45;3.50;;;;;;;2.42;75.62;94753.94;5071443;28;20041;-72
2021/03/23 07:49:43;;;;;;;10.77;4.20;;;;;;;2.43;74.40;94737.53;5070447;28;20386;-72
2021/03/23 07:52:19;;;;;;;7.80;4.78;;;;;;;2.55;75.62;94745.56;5068967;28;20045;-72
2021/03/23 07:54:45;;;;;;;17.73;9.40;;;;;;;2.67;75.65;94743.31;5063679;28;20399;-72
2021/03/23 07:57:35;;;;;;;8.82;6.13;;;;;;;2.81;76.05;94739.06;5068320;28;20052;-72
2021/03/23 08:00:11;;;;;;;7.85;4.68;;;;;;;2.63;76.00;94752.38;5067128;28;20044;-72
2021/03/23 08:02:55;;;;;;;5.75;3.55;;;;;;;2.87;77.09;94757.13;5064259;28;20036;-72
2021/03/23 08:05:36;;;;;;;4.97;3.45;;;;;;;3.30;75.20;94743.41;5065067;28;20101;-72
2021/03/23 08:08:30;;;;;;;7.95;5.10;;;;;;;3.68;73.38;94755.16;5066848;28;20050;-72
2021/03/23 08:11:33;;;;;;;3.50;2.45;;;;;;;3.62;72.87;94752.34;5063987;28;20036;-72
2021/03/23 08:14:25;;;;;;;5.90;2.75;;;;;;;3.47;72.93;94759.38;5065461;28;20048;-72
2021/03/23 08:17:12;;;;;;;4.50;3.15;;;;;;;3.34;72.53;94749.00;5063362;28;20032;-72
2021/03/23 08:20:03;;;;;;;4.18;2.72;;;;;;;3.41;72.65;94760.13;5058688;28;20033;-72
2021/03/23 08:22:35;;;;;;;4.43;2.25;;;;;;;3.28;73.57;94752.28;5064240;28;20577;-72
2021/03/23 08:25:10;;;;;;;3.95;2.60;;;;;;;3.21;72.92;94740.19;5071157;28;20482;-73
2021/03/23 08:27:51;;;;;;;;;;;;;;;3.30;73.19;94752.94;5066593;28;20047;-71
2021/03/23 08:30:33;;;;;;;4.13;2.20;;;;;;;3.22;73.26;94757.22;5068614;28;19924;-72
2021/03/23 08:33:29;;;;;;;3.10;1.90;;;;;;;3.47;73.17;94759.38;5067533;28;20036;-72
2021/03/23 08:36:14;;;;;;;3.90;2.67;;;;;;;3.61;75.45;94761.03;5061493;28;20044;-71
2021/03/23 08:38:44;;;;;;;3.47;2.60;;;;;;;3.74;71.45;94759.53;5060168;28;20536;-72
2021/03/23 08:41:22;;;;;;;7.28;4.60;;;;;;;3.94;70.19;94760.44;5063267;28;20045;-72
2021/03/23 08:43:49;;;;;;;7.65;3.58;;;;;;;3.87;71.26;94754.47;5062679;28;20047;-72
2021/03/23 08:46:20;;;;;;;2.95;2.35;;;;;;;3.93;71.52;94758.84;5058625;28;20044;-72
2021/03/23 08:48:56;;;;;;;6.07;3.60;;;;;;;3.69;72.05;94762.69;5058107;28;20501;-73
2021/03/23 08:51:25;;;;;;;6.35;3.60;;;;;;;3.82;71.47;94756.81;5060622;28;20040;-72
2021/03/23 08:54:00;;;;;;;9.23;4.97;;;;;;;3.51;72.07;94760.59;5063795;28;20040;-72
2021/03/23 08:56:44;;;;;;;17.15;8.13;;;;;;;3.25;73.79;94756.84;5061815;28;20055;-72
2021/03/23 08:59:36;;;;;;;5.57;3.92;;;;;;;3.39;73.13;94757.75;5058230;28;20078;-72
2021/03/23 09:02:09;;;;;;;6.63;3.83;;;;;;;3.25;73.91;94761.19;5062284;28;20040;-73
2021/03/23 09:04:53;;;;;;;10.10;4.85;;;;;;;3.47;72.82;94759.38;5063776;28;20044;-72
2021/03/23 09:07:24;;;;;;;8.32;4.28;;;;;;;3.85;71.93;94755.63;5065151;28;20506;-72
2021/03/23 09:09:52;;;;;;;13.60;8.55;;;;;;;3.58;73.87;94758.06;5065181;28;20029;-72
2021/03/23 09:12:44;;;;;;;18.40;9.18;;;;;;;3.62;72.03;94767.78;5058987;28;20131;-72
2021/03/23 09:15:17;;;;;;;10.82;6.47;;;;;;;3.82;69.15;94756.81;5057885;28;20080;-72
2021/03/23 09:18:22;;;;;;;9.70;5.68;;;;;;;3.93;68.30;94766.56;5056499;28;20504;-72
2021/03/23 09:20:51;;;;;;;15.50;6.40;;;;;;;3.78;69.87;94760.72;5064475;28;20036;-72
2021/03/23 09:23:18;;;;;;;6.53;4.53;;;;;;;3.71;68.11;94753.00;5065853;28;20048;-72
2021/03/23 09:26:05;;;;;;;8.15;5.07;;;;;;;4.06;68.16;94758.09;5063791;28;20041;-72
2021/03/23 09:28:32;;;;;;;9.38;4.95;;;;;;;4.23;68.71;94763.72;5067138;28;20036;-72
2021/03/23 09:31:07;;;;;;;6.82;4.80;;;;;;;4.35;65.49;94757.03;5063756;28;20537;-72
2021/03/23 09:33:50;;;;;;;11.10;5.28;;;;;;;4.63;67.39;94761.28;5062268;28;20070;-72
2021/03/23 09:36:23;;;;;;;12.50;7.50;;;;;;;4.66;68.22;94763.44;5067149;28;20506;-72
2021/03/23 09:38:52;;;;;;;11.80;7.10;;;;;;;4.64;67.54;94755.13;5067846;28;20044;-71
2021/03/23 09:41:21;;;;;;;7.50;4.10;;;;;;;4.64;66.92;94760.28;5068768;28;20406;-72
2021/03/23 09:43:53;;;;;;;24.80;14.40;;;;;;;4.99;65.83;94770.47;5068924;28;20050;-72
2021/03/23 09:46:43;;;;;;;8.43;5.00;;;;;;;4.88;64.23;94771.03;5069030;28;20043;-72
2021/03/23 09:49:11;;;;;;;6.00;3.97;;;;;;;4.63;66.39;94769.03;5064520;28;20033;-72
2021/03/23 09:52:04;;;;;;;6.45;4.22;;;;;;;4.67;65.76;94767.63;5064649;28;20421;-72
2021/03/23 09:54:34;;;;;;;15.57;11.70;;;;;;;4.67;66.10;94775.38;5055986;28;20070;-72
2021/03/23 09:57:18;;;;;;;11.65;9.38;;;;;;;4.62;67.20;94776.94;5063935;28;20056;-72
2021/03/23 10:00:21;;;;;;;10.98;6.35;;;;;;;4.50;66.21;94768.97;5068275;28;20049;-73
2021/03/23 10:02:47;;;;;;;7.55;5.90;;;;;;;4.44;66.34;94769.75;5066570;28;20145;-72
2021/03/23 10:05:17;;;;;;;12.70;8.95;;;;;;;4.37;67.08;94780.81;5066314;28;20064;-73
2021/03/23 10:07:45;;;;;;;14.02;9.82;;;;;;;4.21;67.68;94766.50;5066613;28;20044;-72
2021/03/23 10:10:25;;;;;;;18.00;10.82;;;;;;;4.10;68.61;94766.25;5067987;28;20060;-72
2021/03/23 10:12:54;;;;;;;20.00;11.88;;;;;;;4.08;68.54;94781.13;5066838;28;20048;-72
2021/03/23 10:15:21;;;;;;;34.42;18.35;;;;;;;3.96;68.80;94773.94;5061580;28;20484;-72
2021/03/23 10:17:47;;;;;;;34.15;19.55;;;;;;;4.08;68.58;94776.75;5065298;28;20072;-72
2021/03/23 10:20:20;;;;;;;31.02;15.77;;;;;;;4.24;68.18;94778.22;5065274;28;20048;-70
2021/03/23 10:22:54;;;;;;;18.45;9.50;;;;;;;4.24;69.00;94770.47;5067406;28;20053;-72
2021/03/23 10:25:23;;;;;;;19.88;11.10;;;;;;;4.39;66.25;94772.91;5064616;28;20701;-71
2021/03/23 10:27:50;;;;;;;15.32;10.05;;;;;;;4.43;64.77;94778.47;5067874;28;20056;-72
2021/03/23 10:30:33;;;;;;;14.77;8.80;;;;;;;5.05;63.68;94782.56;5066741;28;20068;-72
2021/03/23 10:33:18;;;;;;;6.75;4.38;;;;;;;4.97;63.78;94782.78;5065920;28;20133;-72
2021/03/23 10:35:47;;;;;;;;;;;;;;;4.99;63.73;94788.53;5068098;28;20453;-72
2021/03/23 10:38:36;;;;;;;7.25;4.25;;;;;;;5.00;63.84;94784.16;5061077;28;20019;-72
2021/03/23 10:41:17;;;;;;;7.25;5.07;;;;;;;5.24;62.95;94782.78;5065075;28;20052;-72
2021/03/23 10:43:46;;;;;;;10.27;5.78;;;;;;;5.27;63.35;94779.81;5063850;28;20045;-72
2021/03/23 10:46:43;;;;;;;8.35;5.38;;;;;;;5.16;64.03;94778.59;5064053;28;20055;-72
2021/03/23 10:49:36;;;;;;;7.72;5.90;;;;;;;5.03;65.00;94779.41;5061620;27;20052;-72
2021/03/23 10:52:24;;;;;;;9.45;5.50;;;;;;;5.19;66.10;94792.94;5064831;28;20047;-72
2021/03/23 10:55:12;;;;;;;6.70;4.50;;;;;;;4.73;66.30;94784.91;5062292;28;20052;-72
2021/03/23 10:57:39;;;;;;;12.30;7.07;;;;;;;4.87;65.95;94784.94;5065171;28;20052;-73
2021/03/23 11:00:16;;;;;;;12.52;4.90;;;;;;;5.48;64.87;94784.75;5067322;28;20429;-73
2021/03/23 11:02:43;;;;;;;10.25;5.43;;;;;;;5.73;61.45;94778.97;5064740;28;20044;-73
2021/03/23 11:05:17;;;;;;;7.50;5.32;;;;;;;5.86;60.34;94784.13;5063701;28;20506;-73
2021/03/23 11:07:56;;;;;;;5.53;4.47;;;;;;;5.70;62.18;94787.13;5065253;28;20059;-73
2021/03/23 11:10:29;;;;;;;6.00;4.25;;;;;;;5.96;60.75;94778.56;5067074;28;20505;-73
2021/03/23 11:12:56;;;;;;;9.85;5.57;;;;;;;6.37;60.48;94768.88;5062434;28;20091;-74
2021/03/23 11:15:22;;;;;;;6.53;4.68;;;;;;;6.93;58.01;94772.56;5067120;28;20070;-74
2021/03/23 11:17:51;;;;;;;7.13;5.10;;;;;;;7.90;56.33;94769.56;5066719;28;20063;-74
2021/03/23 11:20:27;;;;;;;7.28;5.18;;;;;;;8.52;51.72;94754.72;5066642;28;20049;-73
2021/03/23 11:22:56;;;;;;;6.03;4.80;;;;;;;8.67;52.26;94771.72;5067283;28;20054;-74
2021/03/23 11:25:25;;;;;;;6.78;4.75;;;;;;;9.22;47.52;94768.94;5067269;28;20453;-73
2021/03/23 11:27:53;;;;;;;8.50;6.22;;;;;;;9.59;47.56;94773.94;5066709;28;20041;-73
2021/03/23 11:30:21;;;;;;;8.63;5.20;;;;;;;8.92;50.33;94748.19;5061541;28;20053;-73
2021/03/23 11:32:49;;;;;;;6.65;4.90;;;;;;;9.49;50.14;94763.28;5062665;28;20045;-73
2021/03/23 11:35:17;;;;;;;12.23;5.80;;;;;;;10.13;46.21;94758.97;5062269;28;20037;-73
2021/03/23 11:37:44;;;;;;;9.18;6.07;;;;;;;9.97;45.17;94751.88;5056574;28;20463;-73
2021/03/23 11:40:11;;;;;;;9.32;6.32;;;;;;;10.20;46.94;94763.28;5063085;28;20048;-72
2021/03/23 11:42:48;;;;;;;20.60;15.20;;;;;;;10.34;44.56;94754.22;5060554;28;20041;-73
2021/03/23 11:45:46;;;;;;;10.15;7.00;;;;;;;10.17;44.53;94763.72;5063276;28;20048;-72
2021/03/23 11:48:14;;;;;;;12.07;6.20;;;;;;;10.48;46.37;94765.94;5058830;28;20464;-72